sensor_id;sensor_type;location;lat;lon;timestamp;P1;durP1;ratioP1;P2;durP2;ratioP2
5754;SDS011;2902;42.130;24.732;2023-10-13T00:02:01;6.97;;;6.47;;
5754;SDS011;2902;42.130;24.732;2023-10-13T00:04:30;7.27;;;6.53;;
5754;SDS011;2902;42.130;24.732;2023-10-13T00:07:01;7.40;;;6.80;;
5754;SDS011;2902;42.130;24.732;2023-10-13T00:09:29;15.70;;;7.13;;
5754;SDS011;2902;42.130;24.732;2023-10-13T00:11:58;8.37;;;7.57;;
5754;SDS011;2902;42.130;24.732;2023-10-13T00:14:25;7.63;;;6.93;;
5754;SDS011;2902;42.130;24.732;2023-10-13T00:16:58;8.33;;;7.60;;
5754;SDS011;2902;42.130;24.732;2023-10-13T00:19:29;7.90;;;6.70;;
5754;SDS011;2902;42.130;24.732;2023-10-13T00:22:06;13.40;;;7.00;;
5754;SDS011;2902;42.130;24.732;2023-10-13T00:24:37;9.47;;;7.07;;
5754;SDS011;2902;42.130;24.732;2023-10-13T00:27:10;11.33;;;6.60;;
5754;SDS011;2902;42.130;24.732;2023-10-13T00:29:53;7.47;;;6.70;;
5754;SDS011;2902;42.130;24.732;2023-10-13T00:32:41;8.00;;;7.20;;
5754;SDS011;2902;42.130;24.732;2023-10-13T00:35:09;9.40;;;7.17;;
5754;SDS011;2902;42.130;24.732;2023-10-13T00:37:39;7.97;;;7.20;;
5754;SDS011;2902;42.130;24.732;2023-10-13T00:40:09;8.93;;;6.57;;
5754;SDS011;2902;42.130;24.732;2023-10-13T00:42:57;7.77;;;6.03;;
5754;SDS011;2902;42.130;24.732;2023-10-13T00:45:45;8.80;;;7.20;;
5754;SDS011;2902;42.130;24.732;2023-10-13T00:48:21;12.90;;;6.53;;
5754;SDS011;2902;42.130;24.732;2023-10-13T00:50:50;7.13;;;6.27;;
5754;SDS011;2902;42.130;24.732;2023-10-13T00:53:16;10.23;;;6.50;;
5754;SDS011;2902;42.130;24.732;2023-10-13T00:55:46;9.83;;;6.60;;
5754;SDS011;2902;42.130;24.732;2023-10-13T00:58:12;11.63;;;7.57;;
5754;SDS011;2902;42.130;24.732;2023-10-13T01:00:40;7.03;;;6.33;;
5754;SDS011;2902;42.130;24.732;2023-10-13T01:03:12;7.03;;;6.10;;
5754;SDS011;2902;42.130;24.732;2023-10-13T01:05:41;13.60;;;6.67;;
5754;SDS011;2902;42.130;24.732;2023-10-13T01:08:07;11.73;;;6.60;;
5754;SDS011;2902;42.130;24.732;2023-10-13T01:10:37;12.50;;;6.77;;
5754;SDS011;2902;42.130;24.732;2023-10-13T01:13:03;7.87;;;6.27;;
5754;SDS011;2902;42.130;24.732;2023-10-13T01:15:29;6.43;;;5.93;;
5754;SDS011;2902;42.130;24.732;2023-10-13T01:18:05;6.47;;;6.07;;
5754;SDS011;2902;42.130;24.732;2023-10-13T01:20:36;6.90;;;6.30;;
5754;SDS011;2902;42.130;24.732;2023-10-13T01:23:10;8.43;;;5.63;;
5754;SDS011;2902;42.130;24.732;2023-10-13T01:25:43;7.00;;;6.40;;
5754;SDS011;2902;42.130;24.732;2023-10-13T01:28:09;6.87;;;6.27;;
5754;SDS011;2902;42.130;24.732;2023-10-13T01:30:40;6.57;;;6.00;;
5754;SDS011;2902;42.130;24.732;2023-10-13T01:33:06;14.00;;;6.90;;
5754;SDS011;2902;42.130;24.732;2023-10-13T01:35:34;8.83;;;7.00;;
5754;SDS011;2902;42.130;24.732;2023-10-13T01:38:02;9.17;;;6.50;;
5754;SDS011;2902;42.130;24.732;2023-10-13T01:40:31;7.00;;;6.60;;
5754;SDS011;2902;42.130;24.732;2023-10-13T01:43:00;8.50;;;6.50;;
5754;SDS011;2902;42.130;24.732;2023-10-13T01:45:25;7.27;;;6.67;;
5754;SDS011;2902;42.130;24.732;2023-10-13T01:47:55;9.07;;;6.83;;
5754;SDS011;2902;42.130;24.732;2023-10-13T01:50:21;14.17;;;6.70;;
5754;SDS011;2902;42.130;24.732;2023-10-13T01:52:54;10.23;;;7.33;;
5754;SDS011;2902;42.130;24.732;2023-10-13T01:55:32;7.47;;;6.60;;
5754;SDS011;2902;42.130;24.732;2023-10-13T01:58:08;9.47;;;6.67;;
5754;SDS011;2902;42.130;24.732;2023-10-13T02:00:39;8.37;;;5.60;;
5754;SDS011;2902;42.130;24.732;2023-10-13T02:03:07;11.77;;;6.47;;
5754;SDS011;2902;42.130;24.732;2023-10-13T02:05:40;8.40;;;6.33;;
5754;SDS011;2902;42.130;24.732;2023-10-13T02:08:11;10.23;;;6.10;;
5754;SDS011;2902;42.130;24.732;2023-10-13T02:10:45;7.03;;;6.33;;
5754;SDS011;2902;42.130;24.732;2023-10-13T02:13:13;6.97;;;6.37;;
5754;SDS011;2902;42.130;24.732;2023-10-13T02:15:43;7.00;;;6.30;;
5754;SDS011;2902;42.130;24.732;2023-10-13T02:18:11;6.43;;;5.90;;
5754;SDS011;2902;42.130;24.732;2023-10-13T02:20:38;9.73;;;6.33;;
5754;SDS011;2902;42.130;24.732;2023-10-13T02:23:10;10.27;;;6.30;;
5754;SDS011;2902;42.130;24.732;2023-10-13T02:25:37;14.90;;;7.13;;
5754;SDS011;2902;42.130;24.732;2023-10-13T02:28:12;11.10;;;6.50;;
5754;SDS011;2902;42.130;24.732;2023-10-13T02:30:46;9.83;;;7.23;;
5754;SDS011;2902;42.130;24.732;2023-10-13T02:33:15;7.63;;;6.80;;
5754;SDS011;2902;42.130;24.732;2023-10-13T02:35:47;11.53;;;6.30;;
5754;SDS011;2902;42.130;24.732;2023-10-13T02:38:19;8.20;;;6.27;;
5754;SDS011;2902;42.130;24.732;2023-10-13T02:40:53;11.70;;;7.13;;
5754;SDS011;2902;42.130;24.732;2023-10-13T02:43:21;11.10;;;6.80;;
5754;SDS011;2902;42.130;24.732;2023-10-13T02:45:54;14.27;;;7.00;;
5754;SDS011;2902;42.130;24.732;2023-10-13T02:48:24;11.50;;;6.57;;
5754;SDS011;2902;42.130;24.732;2023-10-13T02:50:56;14.77;;;7.70;;
5754;SDS011;2902;42.130;24.732;2023-10-13T02:53:27;12.17;;;7.33;;
5754;SDS011;2902;42.130;24.732;2023-10-13T02:55:54;16.63;;;7.47;;
5754;SDS011;2902;42.130;24.732;2023-10-13T02:58:25;11.17;;;7.37;;
5754;SDS011;2902;42.130;24.732;2023-10-13T03:01:04;9.80;;;6.73;;
5754;SDS011;2902;42.130;24.732;2023-10-13T03:03:41;11.00;;;6.47;;
5754;SDS011;2902;42.130;24.732;2023-10-13T03:06:19;8.00;;;5.87;;
5754;SDS011;2902;42.130;24.732;2023-10-13T03:08:48;7.73;;;5.90;;
5754;SDS011;2902;42.130;24.732;2023-10-13T03:11:15;6.87;;;6.13;;
5754;SDS011;2902;42.130;24.732;2023-10-13T03:13:48;7.20;;;5.40;;
5754;SDS011;2902;42.130;24.732;2023-10-13T03:16:17;8.33;;;6.83;;
5754;SDS011;2902;42.130;24.732;2023-10-13T03:18:44;10.33;;;6.30;;
5754;SDS011;2902;42.130;24.732;2023-10-13T03:21:19;9.20;;;6.23;;
5754;SDS011;2902;42.130;24.732;2023-10-13T03:23:54;6.50;;;5.60;;
5754;SDS011;2902;42.130;24.732;2023-10-13T03:26:21;9.63;;;5.77;;
5754;SDS011;2902;42.130;24.732;2023-10-13T03:28:50;6.57;;;6.07;;
5754;SDS011;2902;42.130;24.732;2023-10-13T03:31:19;8.20;;;6.20;;
5754;SDS011;2902;42.130;24.732;2023-10-13T03:33:51;12.53;;;6.13;;
5754;SDS011;2902;42.130;24.732;2023-10-13T03:36:22;6.80;;;6.20;;
5754;SDS011;2902;42.130;24.732;2023-10-13T03:39:20;9.37;;;6.30;;
5754;SDS011;2902;42.130;24.732;2023-10-13T03:41:56;10.67;;;7.63;;
5754;SDS011;2902;42.130;24.732;2023-10-13T03:44:26;10.37;;;6.67;;
5754;SDS011;2902;42.130;24.732;2023-10-13T03:46:55;18.87;;;7.30;;
5754;SDS011;2902;42.130;24.732;2023-10-13T03:49:30;18.00;;;7.10;;
5754;SDS011;2902;42.130;24.732;2023-10-13T03:51:56;11.63;;;7.37;;
5754;SDS011;2902;42.130;24.732;2023-10-13T03:54:23;14.70;;;6.97;;
5754;SDS011;2902;42.130;24.732;2023-10-13T03:56:50;14.90;;;6.30;;
5754;SDS011;2902;42.130;24.732;2023-10-13T03:59:21;19.50;;;8.63;;
5754;SDS011;2902;42.130;24.732;2023-10-13T04:01:49;16.43;;;6.77;;
5754;SDS011;2902;42.130;24.732;2023-10-13T04:04:25;13.10;;;6.87;;
5754;SDS011;2902;42.130;24.732;2023-10-13T04:07:07;27.93;;;7.40;;
5754;SDS011;2902;42.130;24.732;2023-10-13T04:10:00;13.70;;;6.37;;
5754;SDS011;2902;42.130;24.732;2023-10-13T04:12:44;22.33;;;7.47;;
5754;SDS011;2902;42.130;24.732;2023-10-13T04:15:28;12.77;;;6.37;;
5754;SDS011;2902;42.130;24.732;2023-10-13T04:18:09;14.07;;;7.10;;
5754;SDS011;2902;42.130;24.732;2023-10-13T04:20:59;29.63;;;7.60;;
5754;SDS011;2902;42.130;24.732;2023-10-13T04:23:43;28.07;;;7.67;;
5754;SDS011;2902;42.130;24.732;2023-10-13T04:26:24;22.13;;;7.60;;
5754;SDS011;2902;42.130;24.732;2023-10-13T04:29:01;16.43;;;6.27;;
5754;SDS011;2902;42.130;24.732;2023-10-13T04:31:35;16.40;;;6.60;;
5754;SDS011;2902;42.130;24.732;2023-10-13T04:34:24;12.37;;;6.10;;
5754;SDS011;2902;42.130;24.732;2023-10-13T04:37:03;10.70;;;6.63;;
5754;SDS011;2902;42.130;24.732;2023-10-13T04:39:48;15.37;;;6.10;;
5754;SDS011;2902;42.130;24.732;2023-10-13T04:42:21;11.70;;;5.80;;
5754;SDS011;2902;42.130;24.732;2023-10-13T04:45:05;10.03;;;5.83;;
5754;SDS011;2902;42.130;24.732;2023-10-13T04:47:52;7.87;;;5.30;;
5754;SDS011;2902;42.130;24.732;2023-10-13T04:50:39;12.67;;;5.53;;
5754;SDS011;2902;42.130;24.732;2023-10-13T04:53:10;34.83;;;7.07;;
5754;SDS011;2902;42.130;24.732;2023-10-13T04:55:53;14.57;;;6.20;;
5754;SDS011;2902;42.130;24.732;2023-10-13T04:58:34;14.57;;;5.90;;
5754;SDS011;2902;42.130;24.732;2023-10-13T05:01:21;19.33;;;6.10;;
5754;SDS011;2902;42.130;24.732;2023-10-13T05:04:18;21.93;;;7.27;;
5754;SDS011;2902;42.130;24.732;2023-10-13T05:06:55;20.07;;;6.73;;
5754;SDS011;2902;42.130;24.732;2023-10-13T05:09:40;16.97;;;6.77;;
5754;SDS011;2902;42.130;24.732;2023-10-13T05:12:23;10.20;;;5.63;;
5754;SDS011;2902;42.130;24.732;2023-10-13T05:15:08;10.37;;;6.37;;
5754;SDS011;2902;42.130;24.732;2023-10-13T05:17:52;11.53;;;6.60;;
5754;SDS011;2902;42.130;24.732;2023-10-13T05:20:37;14.57;;;5.70;;
5754;SDS011;2902;42.130;24.732;2023-10-13T05:23:21;14.00;;;5.33;;
5754;SDS011;2902;42.130;24.732;2023-10-13T05:26:05;12.33;;;5.67;;
5754;SDS011;2902;42.130;24.732;2023-10-13T05:28:49;10.10;;;5.63;;
5754;SDS011;2902;42.130;24.732;2023-10-13T05:31:33;16.70;;;5.17;;
5754;SDS011;2902;42.130;24.732;2023-10-13T05:34:17;9.53;;;4.57;;
5754;SDS011;2902;42.130;24.732;2023-10-13T05:37:02;12.23;;;5.00;;
5754;SDS011;2902;42.130;24.732;2023-10-13T05:39:47;25.50;;;6.20;;
5754;SDS011;2902;42.130;24.732;2023-10-13T05:42:31;14.13;;;5.13;;
5754;SDS011;2902;42.130;24.732;2023-10-13T05:45:15;17.10;;;5.57;;
5754;SDS011;2902;42.130;24.732;2023-10-13T05:48:05;11.23;;;5.50;;
5754;SDS011;2902;42.130;24.732;2023-10-13T05:53:44;35.17;;;5.93;;
5754;SDS011;2902;42.130;24.732;2023-10-13T05:56:31;17.33;;;6.50;;
5754;SDS011;2902;42.130;24.732;2023-10-13T05:59:15;8.00;;;5.47;;
5754;SDS011;2902;42.130;24.732;2023-10-13T06:02:14;18.40;;;7.20;;
5754;SDS011;2902;42.130;24.732;2023-10-13T06:05:00;11.00;;;5.23;;
5754;SDS011;2902;42.130;24.732;2023-10-13T06:07:45;16.77;;;5.50;;
5754;SDS011;2902;42.130;24.732;2023-10-13T06:10:31;17.60;;;5.27;;
5754;SDS011;2902;42.130;24.732;2023-10-13T06:13:15;34.83;;;6.00;;
5754;SDS011;2902;42.130;24.732;2023-10-13T06:15:59;11.83;;;4.43;;
5754;SDS011;2902;42.130;24.732;2023-10-13T06:18:43;25.27;;;6.00;;
5754;SDS011;2902;42.130;24.732;2023-10-13T06:21:27;13.83;;;4.93;;
5754;SDS011;2902;42.130;24.732;2023-10-13T06:24:12;11.23;;;5.27;;
5754;SDS011;2902;42.130;24.732;2023-10-13T06:26:57;8.77;;;4.30;;
5754;SDS011;2902;42.130;24.732;2023-10-13T06:29:41;10.80;;;5.07;;
5754;SDS011;2902;42.130;24.732;2023-10-13T06:32:11;25.07;;;5.60;;
5754;SDS011;2902;42.130;24.732;2023-10-13T06:34:40;12.97;;;5.90;;
5754;SDS011;2902;42.130;24.732;2023-10-13T06:37:10;11.30;;;5.83;;
5754;SDS011;2902;42.130;24.732;2023-10-13T06:39:48;16.27;;;5.30;;
5754;SDS011;2902;42.130;24.732;2023-10-13T06:42:16;12.73;;;5.07;;
5754;SDS011;2902;42.130;24.732;2023-10-13T06:44:44;12.90;;;4.90;;
5754;SDS011;2902;42.130;24.732;2023-10-13T06:47:11;26.27;;;5.17;;
5754;SDS011;2902;42.130;24.732;2023-10-13T06:49:39;15.53;;;4.70;;
5754;SDS011;2902;42.130;24.732;2023-10-13T06:52:08;26.17;;;5.63;;
5754;SDS011;2902;42.130;24.732;2023-10-13T06:54:35;13.57;;;5.17;;
5754;SDS011;2902;42.130;24.732;2023-10-13T06:57:03;20.50;;;5.63;;
5754;SDS011;2902;42.130;24.732;2023-10-13T06:59:33;45.40;;;6.53;;
5754;SDS011;2902;42.130;24.732;2023-10-13T07:02:04;16.77;;;4.97;;
5754;SDS011;2902;42.130;24.732;2023-10-13T07:04:34;13.47;;;5.20;;
5754;SDS011;2902;42.130;24.732;2023-10-13T07:07:04;10.57;;;4.40;;
5754;SDS011;2902;42.130;24.732;2023-10-13T07:09:34;12.43;;;4.07;;
5754;SDS011;2902;42.130;24.732;2023-10-13T07:12:14;7.57;;;4.77;;
5754;SDS011;2902;42.130;24.732;2023-10-13T07:14:48;13.10;;;4.97;;
5754;SDS011;2902;42.130;24.732;2023-10-13T07:17:18;14.63;;;5.50;;
5754;SDS011;2902;42.130;24.732;2023-10-13T07:19:49;12.07;;;5.40;;
5754;SDS011;2902;42.130;24.732;2023-10-13T07:22:19;15.40;;;5.63;;
5754;SDS011;2902;42.130;24.732;2023-10-13T07:24:47;11.87;;;4.70;;
5754;SDS011;2902;42.130;24.732;2023-10-13T07:27:15;23.80;;;5.23;;
5754;SDS011;2902;42.130;24.732;2023-10-13T07:29:49;6.00;;;4.30;;
5754;SDS011;2902;42.130;24.732;2023-10-13T07:32:21;18.63;;;5.20;;
5754;SDS011;2902;42.130;24.732;2023-10-13T07:34:52;27.07;;;5.60;;
5754;SDS011;2902;42.130;24.732;2023-10-13T07:37:21;9.83;;;5.43;;
5754;SDS011;2902;42.130;24.732;2023-10-13T07:39:50;7.53;;;5.07;;
5754;SDS011;2902;42.130;24.732;2023-10-13T07:42:17;11.80;;;4.83;;
5754;SDS011;2902;42.130;24.732;2023-10-13T07:44:47;7.90;;;4.50;;
5754;SDS011;2902;42.130;24.732;2023-10-13T07:47:15;7.60;;;4.20;;
5754;SDS011;2902;42.130;24.732;2023-10-13T07:49:43;14.40;;;3.93;;
5754;SDS011;2902;42.130;24.732;2023-10-13T07:52:13;5.83;;;3.90;;
5754;SDS011;2902;42.130;24.732;2023-10-13T07:55:06;7.07;;;4.23;;
5754;SDS011;2902;42.130;24.732;2023-10-13T07:57:39;14.03;;;5.10;;
5754;SDS011;2902;42.130;24.732;2023-10-13T08:00:19;7.03;;;4.30;;
5754;SDS011;2902;42.130;24.732;2023-10-13T08:02:59;8.23;;;4.33;;
5754;SDS011;2902;42.130;24.732;2023-10-13T08:05:45;10.17;;;4.03;;
5754;SDS011;2902;42.130;24.732;2023-10-13T08:08:23;9.13;;;4.37;;
5754;SDS011;2902;42.130;24.732;2023-10-13T08:11:00;11.07;;;4.10;;
5754;SDS011;2902;42.130;24.732;2023-10-13T08:13:33;7.73;;;3.90;;
5754;SDS011;2902;42.130;24.732;2023-10-13T08:16:02;4.73;;;3.97;;
5754;SDS011;2902;42.130;24.732;2023-10-13T08:18:34;8.10;;;4.17;;
5754;SDS011;2902;42.130;24.732;2023-10-13T08:21:06;13.00;;;4.90;;
5754;SDS011;2902;42.130;24.732;2023-10-13T08:23:41;13.07;;;4.13;;
5754;SDS011;2902;42.130;24.732;2023-10-13T08:26:21;11.87;;;4.50;;
5754;SDS011;2902;42.130;24.732;2023-10-13T08:29:04;11.23;;;4.43;;
5754;SDS011;2902;42.130;24.732;2023-10-13T08:32:02;6.47;;;3.83;;
5754;SDS011;2902;42.130;24.732;2023-10-13T08:34:59;8.57;;;4.27;;
5754;SDS011;2902;42.130;24.732;2023-10-13T08:37:35;5.20;;;4.33;;
5754;SDS011;2902;42.130;24.732;2023-10-13T08:40:12;17.10;;;4.60;;
5754;SDS011;2902;42.130;24.732;2023-10-13T08:43:02;11.70;;;5.17;;
5754;SDS011;2902;42.130;24.732;2023-10-13T08:45:38;10.17;;;4.33;;
5754;SDS011;2902;42.130;24.732;2023-10-13T08:48:24;7.73;;;4.67;;
5754;SDS011;2902;42.130;24.732;2023-10-13T08:50:59;12.50;;;4.80;;
5754;SDS011;2902;42.130;24.732;2023-10-13T08:53:36;7.53;;;4.77;;
5754;SDS011;2902;42.130;24.732;2023-10-13T08:56:11;6.13;;;4.63;;
5754;SDS011;2902;42.130;24.732;2023-10-13T08:58:43;6.77;;;4.80;;
5754;SDS011;2902;42.130;24.732;2023-10-13T09:01:31;14.20;;;5.00;;
5754;SDS011;2902;42.130;24.732;2023-10-13T09:04:03;15.73;;;4.60;;
5754;SDS011;2902;42.130;24.732;2023-10-13T09:06:58;8.23;;;4.80;;
5754;SDS011;2902;42.130;24.732;2023-10-13T09:09:34;11.93;;;4.73;;
5754;SDS011;2902;42.130;24.732;2023-10-13T09:12:25;14.43;;;4.63;;
5754;SDS011;2902;42.130;24.732;2023-10-13T09:15:01;11.93;;;4.87;;
5754;SDS011;2902;42.130;24.732;2023-10-13T09:17:31;12.27;;;4.93;;
5754;SDS011;2902;42.130;24.732;2023-10-13T09:19:59;10.10;;;4.77;;
5754;SDS011;2902;42.130;24.732;2023-10-13T09:22:50;6.03;;;4.37;;
5754;SDS011;2902;42.130;24.732;2023-10-13T09:25:33;8.00;;;4.07;;
5754;SDS011;2902;42.130;24.732;2023-10-13T09:28:01;12.67;;;5.57;;
5754;SDS011;2902;42.130;24.732;2023-10-13T09:30:35;15.70;;;5.30;;
5754;SDS011;2902;42.130;24.732;2023-10-13T09:33:08;17.00;;;4.47;;
5754;SDS011;2902;42.130;24.732;2023-10-13T09:35:34;17.53;;;5.00;;
5754;SDS011;2902;42.130;24.732;2023-10-13T09:38:03;10.05;;;4.85;;
5754;SDS011;2902;42.130;24.732;2023-10-13T09:40:30;11.83;;;4.63;;
5754;SDS011;2902;42.130;24.732;2023-10-13T09:42:59;8.87;;;4.70;;
5754;SDS011;2902;42.130;24.732;2023-10-13T09:45:33;8.57;;;4.93;;
5754;SDS011;2902;42.130;24.732;2023-10-13T09:48:01;17.07;;;5.40;;
5754;SDS011;2902;42.130;24.732;2023-10-13T09:50:32;8.90;;;4.63;;
5754;SDS011;2902;42.130;24.732;2023-10-13T09:53:03;7.30;;;4.27;;
5754;SDS011;2902;42.130;24.732;2023-10-13T09:55:35;15.33;;;5.37;;
5754;SDS011;2902;42.130;24.732;2023-10-13T09:58:06;6.77;;;5.80;;
5754;SDS011;2902;42.130;24.732;2023-10-13T10:00:41;16.57;;;5.67;;
5754;SDS011;2902;42.130;24.732;2023-10-13T10:03:13;9.67;;;5.57;;
5754;SDS011;2902;42.130;24.732;2023-10-13T10:06:06;10.37;;;6.10;;
5754;SDS011;2902;42.130;24.732;2023-10-13T10:08:41;10.17;;;4.60;;
5754;SDS011;2902;42.130;24.732;2023-10-13T10:11:21;10.83;;;4.63;;
5754;SDS011;2902;42.130;24.732;2023-10-13T10:14:21;5.30;;;4.50;;
5754;SDS011;2902;42.130;24.732;2023-10-13T10:17:03;10.27;;;5.10;;
5754;SDS011;2902;42.130;24.732;2023-10-13T10:19:33;11.13;;;5.47;;
5754;SDS011;2902;42.130;24.732;2023-10-13T10:22:01;7.97;;;4.80;;
5754;SDS011;2902;42.130;24.732;2023-10-13T10:24:37;7.97;;;5.30;;
5754;SDS011;2902;42.130;24.732;2023-10-13T10:27:03;11.90;;;6.27;;
5754;SDS011;2902;42.130;24.732;2023-10-13T10:29:31;7.17;;;5.80;;
5754;SDS011;2902;42.130;24.732;2023-10-13T10:31:59;6.73;;;4.07;;
5754;SDS011;2902;42.130;24.732;2023-10-13T10:34:31;10.87;;;4.33;;
5754;SDS011;2902;42.130;24.732;2023-10-13T10:37:00;10.20;;;5.13;;
5754;SDS011;2902;42.130;24.732;2023-10-13T10:39:34;8.57;;;4.40;;
5754;SDS011;2902;42.130;24.732;2023-10-13T10:42:11;11.53;;;4.97;;
5754;SDS011;2902;42.130;24.732;2023-10-13T10:44:42;8.30;;;4.80;;
5754;SDS011;2902;42.130;24.732;2023-10-13T10:47:09;5.90;;;4.50;;
5754;SDS011;2902;42.130;24.732;2023-10-13T10:49:37;9.53;;;4.40;;
5754;SDS011;2902;42.130;24.732;2023-10-13T10:52:06;6.37;;;4.67;;
5754;SDS011;2902;42.130;24.732;2023-10-13T10:54:43;12.83;;;4.90;;
5754;SDS011;2902;42.130;24.732;2023-10-13T10:57:18;5.47;;;4.97;;
5754;SDS011;2902;42.130;24.732;2023-10-13T10:59:44;14.90;;;5.53;;
5754;SDS011;2902;42.130;24.732;2023-10-13T11:02:11;8.63;;;5.03;;
5754;SDS011;2902;42.130;24.732;2023-10-13T11:04:43;11.40;;;4.90;;
5754;SDS011;2902;42.130;24.732;2023-10-13T11:07:20;20.87;;;5.07;;
5754;SDS011;2902;42.130;24.732;2023-10-13T11:09:48;13.63;;;5.00;;
5754;SDS011;2902;42.130;24.732;2023-10-13T11:12:19;13.47;;;5.27;;
5754;SDS011;2902;42.130;24.732;2023-10-13T11:15:00;8.77;;;5.03;;
5754;SDS011;2902;42.130;24.732;2023-10-13T11:17:30;16.27;;;5.43;;
5754;SDS011;2902;42.130;24.732;2023-10-13T11:20:13;18.23;;;5.60;;
5754;SDS011;2902;42.130;24.732;2023-10-13T11:22:46;9.83;;;5.00;;
5754;SDS011;2902;42.130;24.732;2023-10-13T11:25:21;8.87;;;4.60;;
5754;SDS011;2902;42.130;24.732;2023-10-13T11:27:56;9.87;;;5.60;;
5754;SDS011;2902;42.130;24.732;2023-10-13T11:30:25;8.43;;;5.23;;
5754;SDS011;2902;42.130;24.732;2023-10-13T11:33:07;16.83;;;5.23;;
5754;SDS011;2902;42.130;24.732;2023-10-13T11:35:35;10.40;;;4.73;;
5754;SDS011;2902;42.130;24.732;2023-10-13T11:38:21;16.20;;;5.07;;
5754;SDS011;2902;42.130;24.732;2023-10-13T11:40:52;13.60;;;4.77;;
5754;SDS011;2902;42.130;24.732;2023-10-13T11:43:35;18.57;;;5.43;;
5754;SDS011;2902;42.130;24.732;2023-10-13T11:46:17;14.57;;;5.47;;
5754;SDS011;2902;42.130;24.732;2023-10-13T11:49:06;25.10;;;6.13;;
5754;SDS011;2902;42.130;24.732;2023-10-13T11:51:42;10.57;;;4.80;;
5754;SDS011;2902;42.130;24.732;2023-10-13T11:54:11;10.23;;;4.70;;
5754;SDS011;2902;42.130;24.732;2023-10-13T11:56:37;7.33;;;4.60;;
5754;SDS011;2902;42.130;24.732;2023-10-13T11:59:05;7.80;;;4.80;;
5754;SDS011;2902;42.130;24.732;2023-10-13T12:01:41;7.40;;;4.70;;
5754;SDS011;2902;42.130;24.732;2023-10-13T12:04:22;23.33;;;5.10;;
5754;SDS011;2902;42.130;24.732;2023-10-13T12:07:05;9.03;;;5.13;;
5754;SDS011;2902;42.130;24.732;2023-10-13T12:09:42;6.30;;;4.33;;
5754;SDS011;2902;42.130;24.732;2023-10-13T12:12:28;7.23;;;4.57;;
5754;SDS011;2902;42.130;24.732;2023-10-13T12:14:58;7.43;;;4.97;;
5754;SDS011;2902;42.130;24.732;2023-10-13T12:17:34;8.00;;;4.23;;
5754;SDS011;2902;42.130;24.732;2023-10-13T12:20:01;9.93;;;5.47;;
5754;SDS011;2902;42.130;24.732;2023-10-13T12:22:30;7.70;;;4.20;;
5754;SDS011;2902;42.130;24.732;2023-10-13T12:25:04;8.40;;;5.17;;
5754;SDS011;2902;42.130;24.732;2023-10-13T12:27:43;12.47;;;4.87;;
5754;SDS011;2902;42.130;24.732;2023-10-13T12:30:15;12.03;;;4.60;;
5754;SDS011;2902;42.130;24.732;2023-10-13T12:32:47;5.20;;;4.70;;
5754;SDS011;2902;42.130;24.732;2023-10-13T12:35:24;10.13;;;4.70;;
5754;SDS011;2902;42.130;24.732;2023-10-13T12:37:55;11.27;;;5.30;;
5754;SDS011;2902;42.130;24.732;2023-10-13T12:40:30;7.23;;;4.23;;
5754;SDS011;2902;42.130;24.732;2023-10-13T12:43:14;9.97;;;4.60;;
5754;SDS011;2902;42.130;24.732;2023-10-13T12:45:59;5.73;;;3.90;;
5754;SDS011;2902;42.130;24.732;2023-10-13T12:48:43;7.47;;;3.97;;
5754;SDS011;2902;42.130;24.732;2023-10-13T12:51:29;8.60;;;4.13;;
5754;SDS011;2902;42.130;24.732;2023-10-13T12:54:15;5.40;;;4.30;;
5754;SDS011;2902;42.130;24.732;2023-10-13T12:56:45;6.33;;;4.47;;
5754;SDS011;2902;42.130;24.732;2023-10-13T12:59:12;14.27;;;4.17;;
5754;SDS011;2902;42.130;24.732;2023-10-13T13:01:41;11.87;;;4.87;;
5754;SDS011;2902;42.130;24.732;2023-10-13T13:04:08;11.77;;;4.27;;
5754;SDS011;2902;42.130;24.732;2023-10-13T13:06:37;9.73;;;4.70;;
5754;SDS011;2902;42.130;24.732;2023-10-13T13:09:05;9.77;;;3.87;;
5754;SDS011;2902;42.130;24.732;2023-10-13T13:11:34;9.53;;;4.10;;
5754;SDS011;2902;42.130;24.732;2023-10-13T13:14:04;6.13;;;3.97;;
5754;SDS011;2902;42.130;24.732;2023-10-13T13:16:33;8.80;;;4.00;;
5754;SDS011;2902;42.130;24.732;2023-10-13T13:19:01;4.67;;;3.50;;
5754;SDS011;2902;42.130;24.732;2023-10-13T13:21:35;6.10;;;4.67;;
5754;SDS011;2902;42.130;24.732;2023-10-13T13:24:02;6.07;;;3.57;;
5754;SDS011;2902;42.130;24.732;2023-10-13T13:26:30;7.00;;;4.20;;
5754;SDS011;2902;42.130;24.732;2023-10-13T13:28:57;11.37;;;4.47;;
5754;SDS011;2902;42.130;24.732;2023-10-13T13:31:24;11.83;;;4.33;;
5754;SDS011;2902;42.130;24.732;2023-10-13T13:33:54;8.13;;;3.90;;
5754;SDS011;2902;42.130;24.732;2023-10-13T13:36:22;13.43;;;4.63;;
5754;SDS011;2902;42.130;24.732;2023-10-13T13:38:49;15.97;;;4.23;;
5754;SDS011;2902;42.130;24.732;2023-10-13T13:41:16;5.10;;;3.60;;
5754;SDS011;2902;42.130;24.732;2023-10-13T13:43:44;11.60;;;4.17;;
5754;SDS011;2902;42.130;24.732;2023-10-13T13:46:20;9.70;;;4.00;;
5754;SDS011;2902;42.130;24.732;2023-10-13T13:48:50;23.23;;;4.97;;
5754;SDS011;2902;42.130;24.732;2023-10-13T13:51:24;17.63;;;4.13;;
5754;SDS011;2902;42.130;24.732;2023-10-13T13:53:53;8.43;;;3.87;;
5754;SDS011;2902;42.130;24.732;2023-10-13T13:56:20;12.87;;;3.80;;
5754;SDS011;2902;42.130;24.732;2023-10-13T13:58:50;8.67;;;4.27;;
5754;SDS011;2902;42.130;24.732;2023-10-13T14:01:18;9.80;;;3.60;;
5754;SDS011;2902;42.130;24.732;2023-10-13T14:03:47;9.03;;;3.60;;
5754;SDS011;2902;42.130;24.732;2023-10-13T14:06:15;5.13;;;3.40;;
5754;SDS011;2902;42.130;24.732;2023-10-13T14:08:47;4.30;;;3.63;;
5754;SDS011;2902;42.130;24.732;2023-10-13T14:11:16;9.73;;;3.60;;
5754;SDS011;2902;42.130;24.732;2023-10-13T14:14:03;6.03;;;4.13;;
5754;SDS011;2902;42.130;24.732;2023-10-13T14:16:37;9.17;;;3.83;;
5754;SDS011;2902;42.130;24.732;2023-10-13T14:19:09;10.33;;;3.90;;
5754;SDS011;2902;42.130;24.732;2023-10-13T14:21:36;9.23;;;3.80;;
5754;SDS011;2902;42.130;24.732;2023-10-13T14:24:05;14.80;;;4.60;;
5754;SDS011;2902;42.130;24.732;2023-10-13T14:26:40;17.60;;;4.13;;
5754;SDS011;2902;42.130;24.732;2023-10-13T14:29:08;8.20;;;3.87;;
5754;SDS011;2902;42.130;24.732;2023-10-13T14:31:39;10.07;;;4.13;;
5754;SDS011;2902;42.130;24.732;2023-10-13T14:34:06;11.17;;;3.80;;
5754;SDS011;2902;42.130;24.732;2023-10-13T14:36:33;9.20;;;4.13;;
5754;SDS011;2902;42.130;24.732;2023-10-13T14:39:00;9.00;;;4.50;;
5754;SDS011;2902;42.130;24.732;2023-10-13T14:41:29;13.07;;;3.83;;
5754;SDS011;2902;42.130;24.732;2023-10-13T14:43:56;11.20;;;4.20;;
5754;SDS011;2902;42.130;24.732;2023-10-13T14:46:30;11.17;;;3.77;;
5754;SDS011;2902;42.130;24.732;2023-10-13T14:49:01;14.88;;;5.13;;
5754;SDS011;2902;42.130;24.732;2023-10-13T14:51:28;7.07;;;4.30;;
5754;SDS011;2902;42.130;24.732;2023-10-13T14:53:56;8.03;;;3.90;;
5754;SDS011;2902;42.130;24.732;2023-10-13T14:56:24;14.23;;;5.50;;
5754;SDS011;2902;42.130;24.732;2023-10-13T14:58:54;9.83;;;4.53;;
5754;SDS011;2902;42.130;24.732;2023-10-13T15:01:21;17.60;;;5.60;;
5754;SDS011;2902;42.130;24.732;2023-10-13T15:03:52;20.43;;;5.93;;
5754;SDS011;2902;42.130;24.732;2023-10-13T15:06:20;31.70;;;5.43;;
5754;SDS011;2902;42.130;24.732;2023-10-13T15:08:50;33.80;;;7.57;;
5754;SDS011;2902;42.130;24.732;2023-10-13T15:11:19;30.47;;;7.57;;
5754;SDS011;2902;42.130;24.732;2023-10-13T15:13:46;13.17;;;6.70;;
5754;SDS011;2902;42.130;24.732;2023-10-13T15:16:18;13.80;;;5.40;;
5754;SDS011;2902;42.130;24.732;2023-10-13T15:18:46;25.20;;;5.63;;
5754;SDS011;2902;42.130;24.732;2023-10-13T15:21:20;21.17;;;7.00;;
5754;SDS011;2902;42.130;24.732;2023-10-13T15:23:48;32.93;;;7.60;;
5754;SDS011;2902;42.130;24.732;2023-10-13T15:26:16;23.90;;;6.57;;
5754;SDS011;2902;42.130;24.732;2023-10-13T15:28:45;25.73;;;7.03;;
5754;SDS011;2902;42.130;24.732;2023-10-13T15:31:15;42.00;;;7.23;;
5754;SDS011;2902;42.130;24.732;2023-10-13T15:33:51;34.87;;;7.47;;
5754;SDS011;2902;42.130;24.732;2023-10-13T15:36:20;49.53;;;6.80;;
5754;SDS011;2902;42.130;24.732;2023-10-13T15:38:48;27.97;;;7.10;;